Time;durP1;ratioP1;P1;durP2;ratioP2;P2;SDS_P1;SDS_P2;PMS_P1;PMS_P2;Temp;Humidity;BMP_temperature;BMP_pressure;BME280_temperature;BME280_humidity;BME280_pressure;Samples;Min_cycle;Max_cycle;Signal;HPM_P1;HPM_P2
2023/01/19 00:00:43;;;;;;;0.10;0.10;;;;;;;5.63;70.03;100074.06;5105387;28;20467;-82
2023/01/19 00:03:14;;;;;;;0.20;0.20;;;;;;;5.64;69.90;100084.56;5111994;28;20016;-81
2023/01/19 00:05:42;;;;;;;0.20;0.20;;;;;;;5.69;69.91;100081.03;5097354;28;20035;-83
2023/01/19 00:08:16;;;;;;;0.15;0.15;;;;;;;5.64;70.34;100068.78;5110164;28;20116;-83
2023/01/19 00:10:45;;;;;;;0.30;0.30;;;;;;;5.67;70.11;100073.19;5090012;28;20041;-83
2023/01/19 00:13:11;;;;;;;0.10;0.10;;;;;;;5.69;70.33;100073.16;5099141;28;20514;-82
2023/01/19 00:15:38;;;;;;;0.10;0.10;;;;;;;5.71;70.05;100071.34;5099837;28;20065;-83
2023/01/19 00:18:04;;;;;;;0.10;0.10;;;;;;;5.73;70.05;100077.47;5113123;28;20035;-82
2023/01/19 00:20:34;;;;;;;0.20;0.20;;;;;;;5.74;70.03;100074.81;5100639;28;20069;-83
2023/01/19 00:23:01;;;;;;;0.20;0.20;;;;;;;5.74;70.13;100077.44;5106400;28;20447;-84
2023/01/19 00:25:27;;;;;;;0.10;0.10;;;;;;;5.74;70.21;100082.69;5091222;28;20510;-83
2023/01/19 00:27:53;;;;;;;0.10;0.10;;;;;;;5.75;70.57;100094.09;5103407;28;20032;-83
2023/01/19 00:30:19;;;;;;;0.10;0.10;;;;;;;5.67;70.88;100108.19;5096290;28;20040;-83
2023/01/19 00:32:45;;;;;;;2.08;1.08;;;;;;;5.58;71.09;100120.56;5087650;28;20045;-84
2023/01/19 00:35:11;;;;;;;0.10;0.10;;;;;;;5.43;70.72;100112.00;5096444;28;20036;-84
2023/01/19 00:37:37;;;;;;;0.10;0.10;;;;;;;5.29;70.91;100104.22;5103400;28;20547;-84
2023/01/19 00:40:04;;;;;;;0.10;0.10;;;;;;;5.26;70.92;100111.25;5091731;28;20031;-84
2023/01/19 00:42:47;;;;;;;0.10;0.10;;;;;;;5.19;71.16;100100.81;5095504;28;20056;-83
2023/01/19 00:45:18;;;;;;;0.10;0.10;;;;;;;5.12;71.47;100095.66;5103270;28;20026;-82
2023/01/19 00:47:45;;;;;;;0.10;0.10;;;;;;;5.08;71.50;100100.06;5094040;28;20060;-83
2023/01/19 00:50:16;;;;;;;0.20;0.20;;;;;;;5.10;71.76;100098.28;5085414;28;20028;-83
2023/01/19 00:52:43;;;;;;;0.10;0.10;;;;;;;5.04;72.07;100098.34;5074602;28;20488;-84
2023/01/19 00:55:11;;;;;;;0.10;0.10;;;;;;;5.06;72.33;100114.97;5084128;28;20066;-84
2023/01/19 00:57:39;;;;;;;0.10;0.10;;;;;;;5.11;72.16;100109.66;5086904;28;20017;-84
2023/01/19 01:00:08;;;;;;;0.10;0.10;;;;;;;5.13;72.55;100095.63;5092621;28;20027;-84
2023/01/19 01:02:35;;;;;;;0.10;0.10;;;;;;;5.13;72.43;100108.75;5096801;28;20047;-83
2023/01/19 01:05:02;;;;;;;0.10;0.10;;;;;;;5.14;72.89;100130.66;5091535;28;20016;-84
2023/01/19 01:07:29;;;;;;;0.10;0.10;;;;;;;5.19;73.15;100113.94;5092414;28;20024;-83
2023/01/19 01:09:56;;;;;;;0.10;0.10;;;;;;;5.19;73.81;100113.09;5091122;28;20034;-82
2023/01/19 01:12:23;;;;;;;0.35;0.35;;;;;;;5.21;73.55;100123.56;5091672;28;20032;-83
2023/01/19 01:14:49;;;;;;;0.10;0.10;;;;;;;5.28;73.49;100112.13;5100059;28;20484;-84
2023/01/19 01:17:15;;;;;;;0.10;0.10;;;;;;;5.31;73.34;100120.00;5097178;28;20032;-84
2023/01/19 01:19:41;;;;;;;0.20;0.20;;;;;;;5.28;73.82;100133.13;5097450;28;20187;-84
2023/01/19 01:22:09;;;;;;;0.10;0.10;;;;;;;5.25;73.73;100148.94;5103348;28;20027;-84
2023/01/19 01:24:35;;;;;;;0.10;0.10;;;;;;;5.29;73.80;100137.50;5096035;28;20044;-84
2023/01/19 01:27:01;;;;;;;0.10;0.10;;;;;;;5.37;73.61;100133.06;5099194;28;20024;-83
2023/01/19 01:29:27;;;;;;;0.10;0.10;;;;;;;5.37;73.64;100138.31;5106989;28;20506;-83
2023/01/19 01:31:53;;;;;;;0.10;0.10;;;;;;;5.41;73.53;100128.63;5101930;28;20334;-84
2023/01/19 01:34:19;;;;;;;0.10;0.10;;;;;;;5.39;73.49;100136.53;5097911;28;20050;-82
2023/01/19 01:36:46;;;;;;;0.10;0.10;;;;;;;5.34;73.63;100154.09;5112217;28;20068;-83
2023/01/19 01:39:12;;;;;;;0.10;0.10;;;;;;;5.36;73.46;100160.22;5097736;28;20043;-83
2023/01/19 01:41:38;;;;;;;0.10;0.10;;;;;;;5.29;73.67;100161.16;5107911;28;20049;-83
2023/01/19 01:44:48;;;;;;;0.10;0.10;;;;;;;5.27;73.10;100183.91;5105174;28;20402;-83
2023/01/19 01:47:22;;;;;;;0.10;0.10;;;;;;;5.09;72.56;100191.06;5113444;28;20032;-83
2023/01/19 01:49:54;;;;;;;0.20;0.20;;;;;;;5.00;72.49;100189.41;5102747;28;20032;-84
2023/01/19 01:52:25;;;;;;;0.20;0.20;;;;;;;4.86;72.70;100189.50;5113434;28;20107;-84
2023/01/19 01:54:52;;;;;;;0.20;0.20;;;;;;;4.77;72.65;100197.44;5093448;28;20561;-84
2023/01/19 01:57:18;;;;;;;0.20;0.20;;;;;;;4.68;72.59;100205.38;5094396;28;20059;-84
2023/01/19 01:59:47;;;;;;;0.10;0.10;;;;;;;4.66;72.74;100200.13;5112797;28;20073;-83
2023/01/19 02:02:58;;;;;;;0.10;0.10;;;;;;;4.63;72.95;100199.28;5110108;28;20047;-83
2023/01/19 02:05:32;;;;;;;0.10;0.10;;;;;;;4.51;72.96;100208.06;5093962;28;20381;-84
2023/01/19 02:13:43;;;;;;;0.10;0.10;;;;;;;4.48;73.19;100203.72;5103622;28;20036;-85
2023/01/19 02:16:11;;;;;;;0.10;0.10;;;;;;;4.57;73.19;100215.06;5110789;28;20020;-84
2023/01/19 02:18:38;;;;;;;0.10;0.10;;;;;;;4.56;73.68;100223.81;5093969;28;20023;-84
2023/01/19 02:23:57;;;;;;;0.20;0.20;;;;;;;4.51;73.65;100227.34;5127891;27;20400;-83
2023/01/19 02:26:32;;;;;;;0.10;0.10;;;;;;;4.52;73.47;100225.56;5111405;28;20060;-83
2023/01/19 02:29:01;;;;;;;0.20;0.20;;;;;;;4.48;73.84;100223.84;5113575;28;20551;-83
2023/01/19 02:31:30;;;;;;;0.10;0.10;;;;;;;4.47;73.58;100240.47;5113068;28;20444;-83
2023/01/19 02:33:58;;;;;;;0.20;0.20;;;;;;;4.45;73.68;100235.22;5112536;28;20487;-84
2023/01/19 02:36:33;;;;;;;0.10;0.10;;;;;;;4.41;73.95;100244.00;5111251;28;20024;-84
2023/01/19 02:39:01;;;;;;;0.10;0.10;;;;;;;4.46;73.59;100236.97;5103432;28;20032;-82
2023/01/19 02:41:33;;;;;;;0.10;0.10;;;;;;;4.45;73.80;100247.47;5109452;28;20036;-82
2023/01/19 02:44:01;;;;;;;0.10;0.10;;;;;;;4.41;73.91;100246.63;5109877;28;20395;-83
2023/01/19 02:46:27;;;;;;;0.10;0.10;;;;;;;4.43;74.07;100233.50;5110055;28;20020;-83
2023/01/19 02:48:59;;;;;;;0.10;0.10;;;;;;;4.42;73.99;100235.22;5108245;28;20505;-83
2023/01/19 02:51:28;;;;;;;0.10;0.10;;;;;;;4.45;73.93;100240.47;5110500;28;20031;-83
2023/01/19 02:54:25;;;;;;;0.10;0.10;;;;;;;4.49;73.87;100265.81;5107665;28;20027;-83
2023/01/19 02:57:05;;;;;;;0.10;0.10;;;;;;;4.47;73.59;100258.81;5113196;28;20411;-83
2023/01/19 02:59:48;;;;;;;0.10;0.10;;;;;;;4.43;73.81;100272.84;5111059;28;20023;-83
2023/01/19 03:13:09;;;;;;;1.30;1.30;;;;;;;4.35;74.14;100262.38;5071000;28;20406;-82
2023/01/19 03:15:45;;;;;;;0.10;0.10;;;;;;;4.30;74.08;100258.88;5052553;28;20308;-82
2023/01/19 03:18:15;;;;;;;0.10;0.10;;;;;;;4.16;73.50;100280.81;5053996;28;20373;-83
2023/01/19 03:20:44;;;;;;;0.10;0.10;;;;;;;4.09;73.87;100286.94;5057677;28;20029;-82
2023/01/19 03:23:12;;;;;;;0.20;0.20;;;;;;;4.09;73.71;100296.53;5060144;28;20021;-82
2023/01/19 03:25:42;;;;;;;0.10;0.10;;;;;;;4.05;73.55;100298.31;5050668;28;20033;-83
2023/01/19 03:28:10;;;;;;;0.10;0.10;;;;;;;4.09;73.59;100289.56;5049120;28;20033;-82
2023/01/19 03:30:41;;;;;;;0.10;0.10;;;;;;;4.11;73.87;100266.84;5055253;28;20515;-82
2023/01/19 03:33:20;;;;;;;0.10;0.10;;;;;;;4.15;73.82;100263.31;5079858;28;20043;-82
2023/01/19 03:35:51;;;;;;;0.17;0.17;;;;;;;4.16;73.85;100256.31;5081597;28;20040;-82
2023/01/19 03:38:24;;;;;;;0.20;0.20;;;;;;;4.15;73.88;100252.81;5067568;28;20017;-82
2023/01/19 03:40:53;;;;;;;0.13;0.13;;;;;;;4.14;73.93;100256.31;5072190;28;20025;-83
2023/01/19 03:43:22;;;;;;;0.10;0.10;;;;;;;4.19;73.59;100259.81;5074092;28;20029;-82
2023/01/19 03:45:49;;;;;;;0.10;0.10;;;;;;;4.17;73.65;100261.53;5082117;28;20075;-82
2023/01/19 03:48:16;;;;;;;0.10;0.10;;;;;;;4.22;73.58;100264.16;5079870;28;20029;-82
2023/01/19 03:50:42;;;;;;;0.10;0.10;;;;;;;4.22;73.52;100264.16;5073987;28;20030;-82
2023/01/19 03:53:11;;;;;;;0.15;0.15;;;;;;;4.19;74.11;100262.41;5061680;28;20045;-83
2023/01/19 03:55:39;;;;;;;0.20;0.20;;;;;;;4.18;73.78;100279.03;5052201;28;20025;-83
2023/01/19 03:58:05;;;;;;;0.20;0.20;;;;;;;4.24;73.68;100278.16;5069281;28;20033;-83
2023/01/19 04:00:32;;;;;;;0.10;0.10;;;;;;;4.26;73.81;100280.75;5056194;28;20025;-83
2023/01/19 04:02:59;;;;;;;0.10;0.10;;;;;;;4.25;73.97;100289.50;5069278;28;20119;-83
2023/01/19 04:05:25;;;;;;;0.10;0.10;;;;;;;4.21;73.90;100293.88;5059192;28;20056;-83
2023/01/19 04:07:52;;;;;;;0.10;0.10;;;;;;;4.23;73.84;100289.50;5048542;28;20045;-83
2023/01/19 04:10:18;;;;;;;0.10;0.10;;;;;;;4.23;73.99;100286.03;5049592;28;20144;-83
2023/01/19 04:12:45;;;;;;;14.32;3.40;;;;;;;4.19;73.69;100286.03;5057610;28;20075;-83
2023/01/19 04:15:11;;;;;;;0.10;0.10;;;;;;;4.21;73.58;100283.38;5065304;28;20071;-83
2023/01/19 04:17:38;;;;;;;0.10;0.10;;;;;;;4.23;73.94;100286.03;5053134;28;20583;-83
2023/01/19 04:20:05;;;;;;;0.10;0.10;;;;;;;4.23;73.74;100286.03;5051039;28;20034;-83
2023/01/19 04:22:31;;;;;;;0.20;0.20;;;;;;;4.24;74.13;100285.13;5047949;28;20029;-83
2023/01/19 04:24:58;;;;;;;0.10;0.10;;;;;;;4.25;73.87;100279.00;5047538;28;20029;-83
2023/01/19 04:27:24;;;;;;;0.20;0.20;;;;;;;4.23;74.10;100270.28;5051506;28;20026;-83
2023/01/19 04:29:51;;;;;;;0.57;0.55;;;;;;;4.26;73.67;100283.38;5043706;28;20448;-83
2023/01/19 04:32:17;;;;;;;0.10;0.10;;;;;;;4.25;73.87;100273.75;5045055;28;20109;-83
2023/01/19 04:34:44;;;;;;;0.20;0.20;;;;;;;4.28;74.32;100274.63;5042622;28;20159;-83
2023/01/19 04:37:10;;;;;;;0.10;0.10;;;;;;;4.28;73.95;100274.63;5041319;28;20493;-82
2023/01/19 04:39:36;;;;;;;0.10;0.10;;;;;;;4.32;74.04;100280.75;5043138;28;20036;-83
2023/01/19 04:42:02;;;;;;;0.10;0.10;;;;;;;4.33;74.48;100278.09;5043585;28;20033;-82
2023/01/19 04:44:28;;;;;;;0.10;0.10;;;;;;;4.38;74.43;100276.34;5045272;28;20022;-83
2023/01/19 04:46:54;;;;;;;0.10;0.10;;;;;;;4.44;73.90;100282.47;5043433;28;20057;-83
2023/01/19 04:49:20;;;;;;;0.10;0.10;;;;;;;4.44;73.93;100280.69;5044340;28;20033;-83
2023/01/19 04:51:47;;;;;;;0.10;0.10;;;;;;;4.47;73.91;100283.28;5049438;28;20148;-82
2023/01/19 04:54:13;;;;;;;0.10;0.10;;;;;;;4.50;74.00;100288.53;5040998;28;20052;-83
2023/01/19 04:56:39;;;;;;;0.20;0.20;;;;;;;4.53;73.97;100291.13;5049753;28;20562;-83
2023/01/19 04:59:06;;;;;;;0.10;0.10;;;;;;;4.56;74.05;100292.00;5061046;28;20052;-82
2023/01/19 05:01:32;;;;;;;0.10;0.10;;;;;;;4.58;74.42;100293.75;5052417;28;20025;-83
2023/01/19 05:03:58;;;;;;;0.10;0.10;;;;;;;4.64;73.96;100287.63;5042551;28;20583;-82
2023/01/19 05:06:24;;;;;;;0.10;0.10;;;;;;;4.67;74.01;100296.34;5049868;28;20033;-83
2023/01/19 05:08:50;;;;;;;0.10;0.10;;;;;;;4.76;73.84;100299.78;5040036;28;20227;-82
2023/01/19 05:11:17;;;;;;;3.58;0.55;;;;;;;4.80;73.57;100294.53;5041757;28;20045;-82
2023/01/19 05:13:43;;;;;;;0.10;0.10;;;;;;;4.89;73.20;100300.63;5039180;28;20032;-82
2023/01/19 05:16:09;;;;;;;0.10;0.10;;;;;;;4.99;72.91;100291.81;5040327;28;20036;-83
2023/01/19 05:18:35;;;;;;;0.10;0.10;;;;;;;5.07;72.41;100302.25;5042674;28;20029;-80
2023/01/19 05:21:03;;;;;;;0.10;0.10;;;;;;;5.12;71.76;100311.88;5040373;28;20025;-83
2023/01/19 05:23:31;;;;;;;0.20;0.20;;;;;;;5.21;71.92;100304.78;5040987;28;20040;-83
2023/01/19 05:25:59;;;;;;;0.10;0.10;;;;;;;5.26;71.45;100310.88;5040805;28;20044;-83
2023/01/19 05:28:26;;;;;;;0.10;0.10;;;;;;;5.30;71.22;100300.34;5042526;28;20104;-82
2023/01/19 05:30:53;;;;;;;0.10;0.10;;;;;;;5.36;70.94;100304.69;5033885;28;20036;-83
2023/01/19 05:33:20;;;;;;;0.10;0.10;;;;;;;5.43;70.57;100311.66;5039564;28;20052;-83
2023/01/19 05:35:50;;;;;;;0.10;0.10;;;;;;;5.51;70.29;100315.09;5040680;28;20026;-83
2023/01/19 05:38:17;;;;;;;0.10;0.10;;;;;;;5.55;70.27;100315.94;5034616;28;20029;-83
2023/01/19 05:40:43;;;;;;;0.30;0.30;;;;;;;5.57;69.84;100321.16;5039519;28;20190;-82
2023/01/19 05:43:09;;;;;;;0.10;0.10;;;;;;;5.62;70.79;100317.63;5039178;28;20026;-83
2023/01/19 05:45:37;;;;;;;0.10;0.10;;;;;;;5.65;70.32;100314.09;5043464;28;20037;-83
2023/01/19 05:48:05;;;;;;;0.20;0.20;;;;;;;5.67;70.08;100326.34;5039532;28;20030;-83
2023/01/19 05:50:31;;;;;;;0.13;0.13;;;;;;;5.70;70.35;100328.06;5038537;28;20037;-83
2023/01/19 05:52:58;;;;;;;0.20;0.20;;;;;;;5.65;69.67;100320.22;5043088;28;20134;-83
2023/01/19 05:55:25;;;;;;;0.10;0.10;;;;;;;5.61;69.82;100334.28;5040430;28;20416;-83
2023/01/19 05:57:51;;;;;;;0.20;0.20;;;;;;;5.63;69.85;100334.25;5039750;28;20037;-82
2023/01/19 06:00:18;;;;;;;0.10;0.10;;;;;;;5.59;69.67;100335.19;5037844;28;20037;-83
2023/01/19 06:02:45;;;;;;;0.10;0.10;;;;;;;5.64;69.98;100336.88;5037368;28;20036;-83
2023/01/19 06:05:11;;;;;;;0.10;0.10;;;;;;;5.65;69.22;100335.13;5036462;28;20068;-83
2023/01/19 06:07:38;;;;;;;0.10;0.10;;;;;;;5.66;69.37;100342.13;5041686;28;20024;-83
2023/01/19 06:10:04;;;;;;;0.30;0.30;;;;;;;5.68;68.97;100337.72;5043605;28;20025;-82
2023/01/19 06:12:31;;;;;;;0.10;0.10;;;;;;;5.70;69.27;100351.72;5038395;28;20098;-83
2023/01/19 06:14:57;;;;;;;0.10;0.10;;;;;;;5.68;69.11;100348.25;5031722;28;20524;-83
2023/01/19 06:17:23;;;;;;;0.10;0.10;;;;;;;5.63;68.85;100340.41;5036968;28;20033;-83
2023/01/19 06:19:49;;;;;;;0.10;0.10;;;;;;;5.59;68.63;100349.19;5039944;28;20037;-83
2023/01/19 06:22:15;;;;;;;0.08;0.08;;;;;;;5.53;68.96;100353.63;5035968;28;20060;-83
2023/01/19 06:24:41;;;;;;;0.10;0.10;;;;;;;5.46;68.99;100364.16;5036077;28;20041;-84
2023/01/19 06:27:08;;;;;;;0.10;0.10;;;;;;;5.34;69.05;100356.38;5040784;28;20037;-84
2023/01/19 06:29:34;;;;;;;0.10;0.10;;;;;;;5.27;69.40;100352.03;5052298;28;20036;-83
2023/01/19 06:32:00;;;;;;;0.00;0.00;;;;;;;5.23;69.46;100363.44;5052699;28;20493;-83
2023/01/19 06:34:27;;;;;;;0.10;0.10;;;;;;;5.16;69.06;100375.75;5051693;28;20039;-83
2023/01/19 06:36:55;;;;;;;0.13;0.13;;;;;;;5.08;69.47;100373.13;5044562;28;20021;-82
2023/01/19 06:39:21;;;;;;;0.20;0.20;;;;;;;5.04;69.30;100378.44;5045345;28;20504;-82
2023/01/19 06:41:47;;;;;;;0.10;0.10;;;;;;;4.97;69.69;100395.94;5051433;28;20033;-82
2023/01/19 06:44:13;;;;;;;0.10;0.10;;;;;;;4.93;69.69;100400.34;5051230;28;20116;-82
2023/01/19 06:46:39;;;;;;;0.10;0.10;;;;;;;4.97;69.30;100404.72;5051636;28;20036;-82
2023/01/19 06:49:05;;;;;;;0.17;0.17;;;;;;;5.10;69.61;100397.66;5050144;28;20021;-83
2023/01/19 06:51:31;;;;;;;0.20;0.20;;;;;;;5.18;69.53;100416.00;5044602;28;20048;-83
2023/01/19 06:53:57;;;;;;;0.10;0.10;;;;;;;5.24;68.81;100409.84;5047171;28;20024;-82
2023/01/19 06:56:24;;;;;;;0.10;0.10;;;;;;;5.27;68.99;100409.81;5042301;28;20051;-82
2023/01/19 06:58:51;;;;;;;0.10;0.10;;;;;;;5.36;69.37;100409.78;5041953;28;20035;-82
2023/01/19 07:01:18;;;;;;;0.17;0.17;;;;;;;5.35;68.50;100421.16;5037244;28;20026;-83
2023/01/19 07:03:44;;;;;;;0.10;0.10;;;;;;;5.38;68.72;100428.16;5043952;28;20119;-83
2023/01/19 07:06:10;;;;;;;0.13;0.13;;;;;;;5.43;68.44;100442.16;5034243;28;20028;-83
2023/01/19 07:08:38;;;;;;;0.10;0.10;;;;;;;5.43;68.67;100445.66;5041583;28;20032;-83
2023/01/19 07:11:07;;;;;;;1.60;1.25;;;;;;;5.47;68.39;100444.75;5046386;28;20037;-83
2023/01/19 07:13:34;;;;;;;0.10;0.10;;;;;;;5.46;68.77;100453.50;5031599;28;20045;-84
2023/01/19 07:16:06;;;;;;;0.10;0.10;;;;;;;5.45;68.47;100436.00;5039771;28;20026;-83
2023/01/19 07:18:32;;;;;;;0.10;0.10;;;;;;;5.42;68.89;100440.38;5038897;28;20087;-83
2023/01/19 07:20:59;;;;;;;0.10;0.10;;;;;;;5.43;68.68;100436.88;5035071;28;20034;-83
2023/01/19 07:23:29;;;;;;;0.10;0.10;;;;;;;5.40;68.30;100453.53;5039934;28;20033;-84
2023/01/19 07:25:57;;;;;;;0.10;0.10;;;;;;;5.46;68.13;100458.78;5045583;28;20081;-83
2023/01/19 07:28:23;;;;;;;0.10;0.10;;;;;;;5.46;67.53;100445.63;5042669;28;20038;-82
2023/01/19 07:30:52;;;;;;;0.10;0.10;;;;;;;5.46;67.82;100464.03;5030088;28;20037;-83
2023/01/19 07:33:18;;;;;;;1.10;1.10;;;;;;;5.48;66.94;100462.28;5048003;28;20025;-83
2023/01/19 07:35:48;;;;;;;0.00;0.00;;;;;;;5.54;66.83;100461.34;5035892;28;20045;-82
2023/01/19 07:38:16;;;;;;;0.10;0.10;;;;;;;5.52;65.98;100465.75;5038424;28;20029;-83
2023/01/19 07:40:42;;;;;;;0.20;0.20;;;;;;;5.58;66.08;100467.47;5034049;28;20026;-83
2023/01/19 07:43:09;;;;;;;0.10;0.10;;;;;;;5.48;64.83;100478.03;5037316;28;20505;-83
2023/01/19 07:45:35;;;;;;;0.00;0.00;;;;;;;5.49;65.22;100473.63;5046570;28;20030;-83
2023/01/19 07:48:01;;;;;;;0.30;0.30;;;;;;;5.51;65.90;100479.78;5030942;28;20053;-83
2023/01/19 07:50:28;;;;;;;0.20;0.20;;;;;;;5.55;65.51;100485.91;5032596;28;20041;-83
2023/01/19 07:52:55;;;;;;;0.10;0.10;;;;;;;5.56;65.46;100488.50;5035422;28;20025;-82
2023/01/19 07:55:22;;;;;;;0.10;0.10;;;;;;;5.57;65.29;100505.13;5045928;28;20044;-83
2023/01/19 07:57:50;;;;;;;0.10;0.10;;;;;;;5.44;65.80;100502.56;5037737;28;20501;-84
2023/01/19 08:00:20;;;;;;;0.10;0.10;;;;;;;5.44;65.28;100486.78;5044159;28;20547;-84
2023/01/19 08:02:50;;;;;;;0.10;0.10;;;;;;;5.40;65.15;100500.84;5037767;28;20031;-84
2023/01/19 08:05:17;;;;;;;0.10;0.10;;;;;;;5.41;65.80;100510.47;5032757;28;20516;-84
2023/01/19 08:07:45;;;;;;;0.10;0.10;;;;;;;5.30;65.16;100517.53;5035391;28;20036;-84
2023/01/19 08:10:13;;;;;;;0.10;0.10;;;;;;;5.28;65.90;100522.78;5036843;28;21922;-84
2023/01/19 08:12:40;;;;;;;0.05;0.05;;;;;;;5.34;65.64;100521.88;5036573;28;20508;-83
2023/01/19 08:15:07;;;;;;;0.10;0.10;;;;;;;5.33;65.83;100535.88;5032387;28;20486;-83
2023/01/19 08:17:33;;;;;;;0.10;0.10;;;;;;;5.35;65.79;100534.13;5040818;28;20029;-84
2023/01/19 08:19:59;;;;;;;0.10;0.10;;;;;;;5.37;65.97;100529.75;5044000;28;20121;-84
2023/01/19 08:22:26;;;;;;;0.10;0.10;;;;;;;5.35;65.69;100542.88;5041152;28;20040;-83
2023/01/19 08:24:53;;;;;;;0.10;0.10;;;;;;;5.39;66.08;100541.13;5048999;28;20040;-84
2023/01/19 08:27:19;;;;;;;0.20;0.20;;;;;;;5.38;66.29;100544.63;5046546;28;20041;-84
2023/01/19 08:29:45;;;;;;;0.10;0.10;;;;;;;5.36;66.49;100546.41;5050290;28;20053;-84
2023/01/19 08:32:12;;;;;;;0.20;0.20;;;;;;;5.33;66.91;100552.53;5043446;28;20097;-83
2023/01/19 08:34:38;;;;;;;0.10;0.10;;;;;;;5.35;67.01;100549.91;5037768;28;20108;-83
2023/01/19 08:37:04;;;;;;;0.10;0.10;;;;;;;5.34;67.16;100554.25;5040945;28;20033;-83
2023/01/19 08:39:30;;;;;;;0.13;0.13;;;;;;;5.35;67.10;100555.16;5037948;28;20100;-84
2023/01/19 08:41:56;;;;;;;0.20;0.20;;;;;;;5.38;67.23;100557.75;5038350;28;20056;-83
2023/01/19 08:44:23;;;;;;;0.10;0.10;;;;;;;5.38;67.05;100564.78;5034376;28;20022;-83
2023/01/19 08:46:49;;;;;;;0.55;0.55;;;;;;;5.33;67.19;100562.16;5033276;28;20049;-83
2023/01/19 08:49:15;;;;;;;0.10;0.10;;;;;;;5.30;66.98;100556.94;5034046;28;20239;-83
2023/01/19 08:51:45;;;;;;;0.10;0.10;;;;;;;5.28;67.26;100569.19;5036781;28;20037;-83
2023/01/19 08:54:11;;;;;;;0.10;0.10;;;;;;;5.19;67.07;100560.44;5038351;28;20032;-83
2023/01/19 08:56:37;;;;;;;0.13;0.13;;;;;;;5.21;67.28;100565.72;5035242;28;20388;-82
2023/01/19 08:59:03;;;;;;;0.10;0.10;;;;;;;5.14;67.29;100562.19;5036265;28;20489;-83
2023/01/19 09:01:29;;;;;;;0.10;0.10;;;;;;;5.16;67.26;100563.09;5040442;28;20052;-84
2023/01/19 09:03:55;;;;;;;0.10;0.10;;;;;;;5.17;67.44;100562.22;5038694;28;20065;-83
2023/01/19 09:06:24;;;;;;;0.17;0.17;;;;;;;5.20;67.04;100563.94;5031358;28;20037;-80
2023/01/19 09:08:50;;;;;;;0.10;0.10;;;;;;;5.21;67.25;100565.72;5033499;28;20404;-83
2023/01/19 09:11:16;;;;;;;0.10;0.10;;;;;;;5.25;67.11;100563.94;5036687;28;20037;-83
2023/01/19 09:13:42;;;;;;;0.10;0.10;;;;;;;5.26;67.05;100570.94;5041602;28;20056;-83
2023/01/19 09:16:11;;;;;;;0.20;0.20;;;;;;;5.30;66.82;100573.56;5042417;28;20026;-83
2023/01/19 09:18:37;;;;;;;0.10;0.10;;;;;;;5.33;66.99;100576.19;5034120;28;20032;-82
2023/01/19 09:21:04;;;;;;;0.10;0.10;;;;;;;5.37;66.92;100577.06;5036842;28;20046;-83
2023/01/19 09:23:30;;;;;;;0.40;0.40;;;;;;;5.37;67.15;100578.78;5036785;28;20018;-83
2023/01/19 09:26:00;;;;;;;0.10;0.10;;;;;;;5.42;67.13;100585.78;5037226;28;20056;-83
2023/01/19 09:28:28;;;;;;;0.10;0.10;;;;;;;5.42;67.29;100582.28;5037250;28;20026;-83
2023/01/19 09:30:54;;;;;;;0.10;0.10;;;;;;;5.44;66.98;100585.78;5037380;28;20025;-84
2023/01/19 09:33:21;;;;;;;0.10;0.10;;;;;;;5.51;66.85;100585.75;5035426;28;20033;-83
2023/01/19 09:35:48;;;;;;;0.22;0.22;;;;;;;5.55;66.68;100588.38;5040100;28;20485;-83
2023/01/19 09:38:15;;;;;;;0.10;0.10;;;;;;;5.60;66.52;100592.72;5040608;28;20026;-84
2023/01/19 09:40:46;;;;;;;0.10;0.10;;;;;;;5.65;66.25;100600.59;5036508;28;20048;-83
2023/01/19 09:45:59;;;;;;;0.20;0.20;;;;;;;5.74;66.47;100597.06;5106168;27;20816;-82
2023/01/19 09:48:44;;;;;;;0.30;0.30;;;;;;;5.82;66.69;100601.41;5093673;28;20051;-83
2023/01/19 09:51:18;;;;;;;0.10;0.10;;;;;;;5.81;66.08;100612.81;5093254;28;20024;-83
2023/01/19 09:56:29;;;;;;;0.10;0.10;;;;;;;5.89;64.59;100620.66;5090943;27;1178270;-83
2023/01/19 09:58:55;;;;;;;0.20;0.20;;;;;;;5.95;64.47;100615.38;5118332;28;20035;-84
2023/01/19 10:04:27;;;;;;;0.10;0.10;;;;;;;6.20;65.37;100614.41;5114353;27;20387;-83
2023/01/19 10:07:19;;;;;;;0.10;0.10;;;;;;;6.24;64.58;100624.03;5083262;28;20566;-83
2023/01/19 10:10:00;;;;;;;0.10;0.10;;;;;;;6.31;64.57;100618.72;5078417;28;20469;-83
2023/01/19 10:13:04;;;;;;;0.10;0.10;;;;;;;6.38;63.48;100616.94;5086903;28;20016;-83
2023/01/19 10:15:42;;;;;;;0.10;0.10;;;;;;;6.42;61.74;100626.56;5086829;28;20036;-83
2023/01/19 10:21:13;;;;;;;0.10;0.10;;;;;;;6.49;61.90;100624.75;5099115;27;20403;-83
2023/01/19 10:29:07;;;;;;;0.10;0.10;;;;;;;6.54;60.10;100624.72;5059395;28;20422;-83
2023/01/19 10:31:36;;;;;;;0.10;0.10;;;;;;;6.60;58.84;100636.09;5053075;28;20040;-83
2023/01/19 10:34:03;;;;;;;0.10;0.10;;;;;;;6.64;58.70;100637.81;5057137;28;20082;-83
2023/01/19 10:36:35;;;;;;;0.10;0.10;;;;;;;6.67;57.16;100639.56;5046925;28;20025;-83
2023/01/19 10:39:03;;;;;;;0.10;0.10;;;;;;;6.70;57.16;100639.50;5041769;28;20293;-83
2023/01/19 10:41:41;;;;;;;0.10;0.10;;;;;;;6.82;55.63;100630.66;5048546;28;20040;-83
2023/01/19 10:44:09;;;;;;;0.10;0.10;;;;;;;6.80;55.33;100635.94;5046235;28;20029;-83
2023/01/19 10:46:53;;;;;;;0.10;0.10;;;;;;;6.85;54.41;100629.75;5053617;28;20025;-82
2023/01/19 10:49:41;;;;;;;0.10;0.10;;;;;;;7.01;55.85;100630.50;5050291;28;20151;-82
2023/01/19 10:52:31;;;;;;;0.20;0.20;;;;;;;7.04;54.18;100631.34;5050701;28;20037;-81
2023/01/19 10:54:58;;;;;;;0.10;0.10;;;;;;;6.97;53.64;100629.66;5057968;28;20037;-81
2023/01/19 10:57:31;;;;;;;0.10;0.10;;;;;;;7.08;52.96;100630.44;5046461;28;20040;-81
2023/01/19 10:59:58;;;;;;;0.10;0.10;;;;;;;7.06;54.04;100629.56;5045919;28;20042;-81
2023/01/19 11:02:26;;;;;;;0.15;0.15;;;;;;;7.00;53.62;100626.97;5038439;28;20060;-82
2023/01/19 11:04:55;;;;;;;0.10;0.10;;;;;;;6.90;52.57;100625.31;5042436;28;20033;-82
2023/01/19 11:07:32;;;;;;;0.28;0.28;;;;;;;6.97;53.43;100629.66;5039017;28;20042;-82
2023/01/19 11:12:57;;;;;;;0.10;0.10;;;;;;;6.81;51.67;100634.16;5087435;27;20922;-83
2023/01/19 11:18:02;;;;;;;0.10;0.10;;;;;;;6.90;51.73;100641.13;5097574;27;20132;-82
2023/01/19 11:20:42;;;;;;;0.10;0.10;;;;;;;6.93;51.03;100634.06;5076912;28;20040;-82
2023/01/19 11:23:32;;;;;;;0.10;0.10;;;;;;;6.95;51.02;100637.59;5077282;28;20456;-82
2023/01/19 11:26:01;;;;;;;0.10;0.10;;;;;;;6.93;49.97;100634.06;5068970;28;20033;-82
2023/01/19 11:28:39;;;;;;;0.10;0.10;;;;;;;7.11;51.56;100632.16;5066357;28;20033;-82
2023/01/19 11:34:20;;;;;;;0.10;0.10;;;;;;;7.16;51.41;100624.22;5054186;28;20382;-82
2023/01/19 11:36:56;;;;;;;0.10;0.10;;;;;;;7.19;50.95;100632.97;5046380;28;20445;-82
2023/01/19 11:39:26;;;;;;;0.40;0.40;;;;;;;7.20;51.53;100629.47;5044087;28;20112;-82
2023/01/19 11:41:57;;;;;;;0.10;0.10;;;;;;;7.16;50.53;100632.13;5047639;28;20043;-82
2023/01/19 11:45:03;;;;;;;0.10;0.10;;;;;;;7.40;51.34;100633.63;5049200;28;20401;-82
2023/01/19 11:50:32;;;;;;;0.10;0.10;;;;;;;7.58;50.46;100632.59;5092224;27;20420;-82
2023/01/19 11:53:06;;;;;;;0.13;0.13;;;;;;;7.63;48.95;100630.75;5108944;28;20036;-82
2023/01/19 11:55:50;;;;;;;0.35;0.35;;;;;;;7.72;48.03;100630.66;5112531;28;20040;-82
2023/01/19 11:58:18;;;;;;;0.10;0.10;;;;;;;7.65;48.22;100631.63;5107167;28;20484;-81
2023/01/19 12:00:53;;;;;;;0.20;0.20;;;;;;;7.66;48.26;100643.03;5114211;28;20107;-81
2023/01/19 12:03:29;;;;;;;0.10;0.10;;;;;;;7.43;47.24;100645.03;5108533;28;20043;-81
2023/01/19 12:06:01;;;;;;;0.10;0.10;;;;;;;7.39;47.88;100643.31;5109047;28;20080;-81
2023/01/19 12:08:35;;;;;;;0.10;0.10;;;;;;;7.46;49.09;100644.13;5107724;28;20027;-81
2023/01/19 12:11:03;;;;;;;0.20;0.20;;;;;;;7.49;47.72;100645.84;5110378;28;20035;-81
2023/01/19 12:13:31;;;;;;;0.20;0.20;;;;;;;7.48;47.57;100644.09;5102838;28;20027;-82
2023/01/19 12:16:09;;;;;;;0.20;0.20;;;;;;;7.59;48.63;100644.88;5109036;28;20115;-79
2023/01/19 12:18:42;;;;;;;0.10;0.10;;;;;;;7.60;48.48;100638.69;5111851;28;20027;-78
2023/01/19 12:21:08;;;;;;;0.10;0.10;;;;;;;7.66;48.99;100646.53;5123375;27;20027;-79
2023/01/19 12:29:16;;;;;;;0.10;0.10;;;;;;;7.47;48.09;100645.00;5089159;27;20808;-80
2023/01/19 12:31:42;;;;;;;0.10;0.10;;;;;;;7.56;48.22;100635.25;5092107;28;20028;-79
2023/01/19 12:37:03;;;;;;;0.20;0.20;;;;;;;7.82;47.68;100630.56;5051879;28;20412;-81
2023/01/19 12:39:30;;;;;;;0.10;0.10;;;;;;;7.90;47.50;100629.56;5050106;28;20088;-81